Time;durP1;ratioP1;P1;durP2;ratioP2;P2;SDS_P1;SDS_P2;PMS_P1;PMS_P2;Temp;Humidity;BMP_temperature;BMP_pressure;BME280_temperature;BME280_humidity;BME280_pressure;Samples;Min_cycle;Max_cycle;Signal;HPM_P1;HPM_P2
2022/04/20 00:02:16;;;;;;;15.07;6.90;;;;;;;-141.50;100.00;63355.56;5090587;28;20056;-82
2022/04/20 00:04:43;;;;;;;14.35;7.18;;;;;;;-141.50;100.00;63355.56;5090109;28;20048;-82
2022/04/20 00:07:10;;;;;;;15.38;6.90;;;;;;;-141.50;100.00;63355.56;5091106;28;20573;-80
2022/04/20 00:09:37;;;;;;;11.43;6.38;;;;;;;-141.50;100.00;63355.56;5091758;28;20504;-80
2022/04/20 00:12:04;;;;;;;11.88;6.22;;;;;;;-141.50;100.00;63355.56;5089614;28;20496;-81
2022/04/20 00:14:31;;;;;;;15.45;6.72;;;;;;;-141.50;100.00;63355.56;5090371;28;20086;-81
2022/04/20 00:16:57;;;;;;;15.68;7.20;;;;;;;-141.50;100.00;63355.56;5091834;28;20044;-81
2022/04/20 00:19:24;;;;;;;11.38;6.20;;;;;;;-141.50;100.00;63355.56;5090979;28;20127;-80
2022/04/20 00:21:50;;;;;;;12.00;6.60;;;;;;;-141.50;100.00;63355.56;5089247;28;20098;-81
2022/04/20 00:24:17;;;;;;;13.73;6.90;;;;;;;-141.50;100.00;63355.56;5092553;28;20055;-82
2022/04/20 00:26:43;;;;;;;12.77;7.03;;;;;;;-141.50;100.00;63355.56;5088984;28;20059;-81
2022/04/20 00:29:10;;;;;;;12.45;6.78;;;;;;;-141.50;100.00;63355.56;5091242;28;20068;-81
2022/04/20 00:31:36;;;;;;;11.30;6.63;;;;;;;-141.50;100.00;63355.56;5088817;28;20052;-81
2022/04/20 00:34:03;;;;;;;12.38;7.15;;;;;;;-141.50;100.00;63355.56;5090184;28;20144;-82
2022/04/20 00:36:30;;;;;;;14.15;7.28;;;;;;;-141.50;100.00;63355.56;5091243;28;20048;-81
2022/04/20 00:38:56;;;;;;;16.48;7.45;;;;;;;-141.50;100.00;63355.56;5090360;28;20286;-83
2022/04/20 00:41:23;;;;;;;13.25;6.93;;;;;;;-141.50;100.00;63355.56;5089622;28;20565;-83
2022/04/20 00:43:50;;;;;;;12.43;7.35;;;;;;;-141.50;100.00;63355.56;5090143;28;20438;-81
2022/04/20 00:46:19;;;;;;;13.20;7.63;;;;;;;-141.50;100.00;63355.56;5088881;28;20052;-82
2022/04/20 00:48:47;;;;;;;10.65;6.90;;;;;;;-141.50;100.00;63355.56;5088365;28;20051;-82
2022/04/20 00:51:14;;;;;;;14.07;6.75;;;;;;;-141.50;100.00;63355.56;5090534;28;20491;-81
2022/04/20 00:53:41;;;;;;;10.77;6.18;;;;;;;-141.50;100.00;63355.56;5090712;28;20135;-82
2022/04/20 00:56:07;;;;;;;12.63;6.70;;;;;;;-141.50;100.00;63355.56;5090176;28;20047;-81
2022/04/20 00:58:37;;;;;;;13.60;6.35;;;;;;;-141.50;100.00;63355.56;5090983;28;20476;-81
2022/04/20 01:01:04;;;;;;;17.48;7.32;;;;;;;-141.50;100.00;63355.56;5091568;28;20087;-85
2022/04/20 01:03:30;;;;;;;15.82;6.85;;;;;;;-141.50;100.00;63355.56;5090699;28;20062;-82
2022/04/20 01:05:57;;;;;;;17.70;6.30;;;;;;;-141.50;100.00;63355.56;5089457;28;20126;-81
2022/04/20 01:08:24;;;;;;;12.93;5.95;;;;;;;-141.50;100.00;63355.56;5089210;28;20087;-81
2022/04/20 01:10:50;;;;;;;10.98;6.28;;;;;;;-141.50;100.00;63355.56;5088107;28;20479;-81
2022/04/20 01:13:17;;;;;;;11.00;6.53;;;;;;;-141.50;100.00;63355.56;5089224;28;20110;-82
2022/04/20 01:15:47;;;;;;;12.35;6.70;;;;;;;-141.50;100.00;63355.56;5090006;28;20341;-80
2022/04/20 01:18:14;;;;;;;10.52;5.68;;;;;;;-141.50;100.00;63355.56;5089420;28;20121;-80
2022/04/20 01:20:42;;;;;;;9.48;5.80;;;;;;;-141.50;100.00;63355.56;5087321;28;20490;-80
2022/04/20 01:23:10;;;;;;;11.30;5.93;;;;;;;-141.50;100.00;63355.56;5091180;28;20059;-81
2022/04/20 01:25:37;;;;;;;11.38;6.57;;;;;;;-141.50;100.00;63355.56;5092594;28;20543;-82
2022/04/20 01:28:08;;;;;;;9.60;5.57;;;;;;;-141.50;100.00;63355.56;5094379;28;20052;-81
2022/04/20 01:30:35;;;;;;;9.23;5.45;;;;;;;-141.50;100.00;63355.56;5094446;28;20470;-80
2022/04/20 01:33:02;;;;;;;10.70;5.75;;;;;;;-141.50;100.00;63355.56;5094844;28;20121;-82
2022/04/20 01:35:28;;;;;;;14.95;6.10;;;;;;;-141.50;100.00;63355.56;5094313;28;20074;-80
2022/04/20 01:37:55;;;;;;;8.75;5.47;;;;;;;-141.50;100.00;63355.56;5093841;28;20073;-83
2022/04/20 01:40:21;;;;;;;9.77;5.53;;;;;;;-141.50;100.00;63355.56;5092512;28;20063;-82
2022/04/20 01:42:48;;;;;;;12.32;5.90;;;;;;;-141.50;100.00;63355.56;5091705;28;20502;-82
2022/04/20 01:45:14;;;;;;;13.13;6.90;;;;;;;-141.50;100.00;63355.56;5093514;28;20093;-79
2022/04/20 01:47:41;;;;;;;10.90;6.25;;;;;;;-141.50;100.00;63355.56;5093839;28;20138;-80
2022/04/20 01:50:07;;;;;;;11.13;7.03;;;;;;;-141.50;100.00;63355.56;5092144;28;20048;-81
2022/04/20 01:52:34;;;;;;;10.77;6.22;;;;;;;-141.50;100.00;63355.56;5093112;28;20047;-83
2022/04/20 01:55:00;;;;;;;12.07;5.93;;;;;;;-141.50;100.00;63355.56;5094809;28;20048;-83
2022/04/20 01:57:27;;;;;;;11.60;6.07;;;;;;;-141.50;100.00;63355.56;5094925;28;20044;-84
2022/04/20 01:59:54;;;;;;;11.95;6.22;;;;;;;-141.50;100.00;63355.56;5093697;28;20507;-83
2022/04/20 02:02:38;;;;;;;14.57;6.53;;;;;;;-141.50;100.00;63355.56;5110090;28;20052;-86
2022/04/20 02:05:09;;;;;;;12.63;6.40;;;;;;;-141.50;100.00;63355.56;5116258;28;20032;-85
2022/04/20 02:07:36;;;;;;;18.13;6.75;;;;;;;-141.50;100.00;63355.56;5108696;28;20056;-82
2022/04/20 02:10:05;;;;;;;11.80;6.53;;;;;;;-141.50;100.00;63355.56;5093087;28;20094;-80
2022/04/20 02:12:32;;;;;;;13.70;6.90;;;;;;;-141.50;100.00;63355.56;5092502;28;20147;-81
2022/04/20 02:14:59;;;;;;;11.48;5.43;;;;;;;-141.50;100.00;63355.56;5093194;28;20052;-83
2022/04/20 02:17:25;;;;;;;12.20;6.38;;;;;;;-141.50;100.00;63355.56;5097958;28;20047;-82
2022/04/20 02:19:57;;;;;;;11.95;5.63;;;;;;;-141.50;100.00;63355.56;5102574;28;20121;-83
2022/04/20 02:22:24;;;;;;;9.77;5.78;;;;;;;-141.50;100.00;63355.56;5103817;28;20060;-81
2022/04/20 02:24:50;;;;;;;12.90;6.00;;;;;;;-141.50;100.00;63355.56;5104776;28;20044;-81
2022/04/20 02:27:17;;;;;;;10.77;5.65;;;;;;;-141.50;100.00;63355.56;5095568;28;20077;-81
2022/04/20 02:29:43;;;;;;;13.57;5.68;;;;;;;-141.50;100.00;63355.56;5092899;28;20123;-85
2022/04/20 02:32:10;;;;;;;10.10;5.80;;;;;;;-141.50;100.00;63355.56;5092758;28;20070;-83
2022/04/20 02:34:37;;;;;;;11.23;5.32;;;;;;;-141.50;100.00;63355.56;5096914;28;20074;-86
2022/04/20 02:37:04;;;;;;;11.15;5.53;;;;;;;-141.50;100.00;63355.56;5098157;28;20282;-84
2022/04/20 02:39:33;;;;;;;10.10;5.68;;;;;;;-141.50;100.00;63355.56;5102785;28;20078;-83
2022/04/20 02:41:59;;;;;;;10.52;6.13;;;;;;;-141.50;100.00;63355.56;5099856;28;20078;-83
2022/04/20 02:44:26;;;;;;;16.35;5.90;;;;;;;-141.50;100.00;63355.56;5101456;28;20048;-82
2022/04/20 02:46:53;;;;;;;10.13;6.13;;;;;;;-141.50;100.00;63355.56;5100581;28;20052;-83
2022/04/20 02:49:21;;;;;;;14.18;6.38;;;;;;;-141.50;100.00;63355.56;5101539;28;20052;-82
2022/04/20 02:51:47;;;;;;;12.57;6.18;;;;;;;-141.50;100.00;63355.56;5102323;28;20052;-82
2022/04/20 02:54:14;;;;;;;12.40;6.18;;;;;;;-141.50;100.00;63355.56;5103371;28;20048;-84
2022/04/20 02:56:40;;;;;;;15.00;6.72;;;;;;;-141.50;100.00;63355.56;5103046;28;20191;-84
2022/04/20 02:59:07;;;;;;;16.48;7.43;;;;;;;-141.50;100.00;63355.56;5097086;28;20131;-80
2022/04/20 03:01:34;;;;;;;13.52;6.97;;;;;;;-141.50;100.00;63355.56;5091873;28;20151;-84
2022/04/20 03:04:00;;;;;;;16.17;8.00;;;;;;;-141.50;100.00;63355.56;5092142;28;20052;-80
2022/04/20 03:06:27;;;;;;;18.13;7.47;;;;;;;-141.50;100.00;63355.56;5093310;28;20496;-81
2022/04/20 03:08:55;;;;;;;12.55;7.20;;;;;;;-141.50;100.00;63355.56;5092589;28;20056;-82
2022/04/20 03:11:21;;;;;;;14.38;7.93;;;;;;;-141.50;100.00;63355.56;5091288;28;20576;-80
2022/04/20 03:13:48;;;;;;;16.45;8.30;;;;;;;-141.50;100.00;63355.56;5092183;28;20044;-83
2022/04/20 03:16:15;;;;;;;16.48;8.02;;;;;;;-141.50;100.00;63355.56;5093984;28;20090;-82
2022/04/20 03:18:42;;;;;;;17.40;8.38;;;;;;;-141.50;100.00;63355.56;5099000;28;20048;-84
2022/04/20 03:21:08;;;;;;;15.95;7.75;;;;;;;-141.50;100.00;63355.56;5095135;28;20533;-79
2022/04/20 03:23:35;;;;;;;14.73;8.05;;;;;;;-141.50;100.00;63355.56;5092094;28;20048;-81
2022/04/20 03:26:03;;;;;;;18.00;8.25;;;;;;;-141.50;100.00;63355.56;5090557;28;20125;-82
2022/04/20 03:28:30;;;;;;;17.52;7.70;;;;;;;-141.50;100.00;63355.56;5091861;28;20198;-82
2022/04/20 03:30:57;;;;;;;13.43;7.57;;;;;;;-141.50;100.00;63355.56;5090814;28;20080;-80
2022/04/20 03:33:24;;;;;;;16.38;7.97;;;;;;;-141.50;100.00;63355.56;5092182;28;20064;-81
2022/04/20 03:35:50;;;;;;;14.45;8.13;;;;;;;-141.50;100.00;63355.56;5074518;28;20083;-83
2022/04/20 03:38:17;;;;;;;14.90;7.55;;;;;;;-141.50;100.00;63355.56;5092546;28;20140;-80
2022/04/20 03:40:47;;;;;;;15.52;8.23;;;;;;;-141.50;100.00;63355.56;5090717;28;20459;-80
2022/04/20 03:43:13;;;;;;;16.15;8.35;;;;;;;-141.50;100.00;63355.56;5092585;28;20070;-80
2022/04/20 03:45:40;;;;;;;15.90;7.90;;;;;;;-141.50;100.00;63355.56;5091905;28;20055;-83
2022/04/20 03:48:07;;;;;;;13.73;8.10;;;;;;;-141.50;100.00;63355.56;5092869;28;20047;-82
2022/04/20 03:50:34;;;;;;;14.45;8.30;;;;;;;-141.50;100.00;63355.56;5091421;28;20109;-81
2022/04/20 03:53:01;;;;;;;18.33;8.07;;;;;;;-141.50;100.00;63355.56;5091329;28;20049;-81
2022/04/20 03:55:27;;;;;;;16.30;8.43;;;;;;;-141.50;100.00;63355.56;5091959;28;20109;-82
2022/04/20 03:57:54;;;;;;;15.05;7.80;;;;;;;-141.50;100.00;63355.56;5092384;28;20050;-81
2022/04/20 04:00:23;;;;;;;16.30;7.75;;;;;;;-141.50;100.00;63355.56;5091077;28;20686;-82
2022/04/20 04:02:50;;;;;;;14.82;7.90;;;;;;;-141.50;100.00;63355.56;5089680;28;20051;-80
2022/04/20 04:05:17;;;;;;;14.70;7.82;;;;;;;-141.50;100.00;63355.56;5090722;28;20056;-83
2022/04/20 04:07:44;;;;;;;17.55;7.65;;;;;;;-141.50;100.00;63355.56;5091573;28;20047;-81
2022/04/20 04:10:10;;;;;;;15.43;7.75;;;;;;;-141.50;100.00;63355.56;5091307;28;20579;-81
2022/04/20 04:12:37;;;;;;;13.63;7.25;;;;;;;-141.50;100.00;63355.56;5090288;28;20440;-82
2022/04/20 04:15:05;;;;;;;13.32;7.35;;;;;;;-141.50;100.00;63355.56;5089345;28;20159;-83
2022/04/20 04:17:32;;;;;;;12.73;7.07;;;;;;;-141.50;100.00;63355.56;5091309;28;20080;-82
2022/04/20 04:19:59;;;;;;;14.88;6.93;;;;;;;-141.50;100.00;63355.56;5091479;28;20150;-80
2022/04/20 04:22:26;;;;;;;13.98;6.30;;;;;;;-141.50;100.00;63355.56;5091190;28;20120;-83
2022/04/20 04:24:53;;;;;;;11.10;6.63;;;;;;;-141.50;100.00;63355.56;5091832;28;20166;-81
2022/04/20 04:27:21;;;;;;;17.75;8.07;;;;;;;-141.50;100.00;63355.56;5088632;28;20072;-83
2022/04/20 04:29:47;;;;;;;20.75;8.30;;;;;;;-141.50;100.00;63355.56;5091333;28;20452;-82
2022/04/20 04:32:14;;;;;;;14.15;7.13;;;;;;;-141.50;100.00;63355.56;5090996;28;20221;-82
2022/04/20 04:34:40;;;;;;;14.57;6.88;;;;;;;-141.50;100.00;63355.56;5090995;28;20056;-82
2022/04/20 04:37:09;;;;;;;15.23;7.40;;;;;;;-141.50;100.00;63355.56;5091891;28;20063;-81
2022/04/20 04:39:36;;;;;;;12.77;6.18;;;;;;;-141.50;100.00;63355.56;5091153;28;20043;-83
2022/04/20 04:42:03;;;;;;;21.23;7.40;;;;;;;-141.50;100.00;63355.56;5090339;28;20496;-81
2022/04/20 04:44:32;;;;;;;15.60;7.05;;;;;;;-141.50;100.00;63355.56;5091671;28;20044;-82
2022/04/20 04:49:43;;;;;;;17.60;9.23;;;;;;;-141.50;100.00;63355.56;5090513;28;20083;-80
2022/04/20 04:52:12;;;;;;;17.98;8.30;;;;;;;-141.50;100.00;63355.56;5090622;28;20451;-81
2022/04/20 04:54:41;;;;;;;17.08;8.07;;;;;;;-141.50;100.00;63355.56;5093125;28;20094;-81
2022/04/20 04:57:08;;;;;;;22.90;8.43;;;;;;;-141.50;100.00;63355.56;5090701;28;20109;-80
2022/04/20 04:59:36;;;;;;;14.30;7.03;;;;;;;-141.50;100.00;63355.56;5093766;28;20075;-82
2022/04/20 05:02:04;;;;;;;14.02;7.32;;;;;;;-141.50;100.00;63355.56;5092290;28;20087;-82
2022/04/20 05:04:31;;;;;;;17.95;7.57;;;;;;;-141.50;100.00;63355.56;5090050;28;20051;-84
2022/04/20 05:06:58;;;;;;;17.05;7.68;;;;;;;-141.50;100.00;63355.56;5093741;28;20052;-81
2022/04/20 05:09:24;;;;;;;22.73;7.88;;;;;;;-141.50;100.00;63355.56;5090241;28;20477;-81
2022/04/20 05:11:51;;;;;;;15.55;7.65;;;;;;;-141.50;100.00;63355.56;5088361;28;20556;-81
2022/04/20 05:14:17;;;;;;;16.65;7.97;;;;;;;-141.50;100.00;63355.56;5090421;28;20055;-81
2022/04/20 05:16:44;;;;;;;12.85;6.82;;;;;;;-141.50;100.00;63355.56;5090256;28;20102;-82
2022/04/20 05:19:11;;;;;;;14.20;7.15;;;;;;;-141.50;100.00;63355.56;5090183;28;20101;-81
2022/04/20 05:21:37;;;;;;;15.00;7.80;;;;;;;-141.50;100.00;63355.56;5089075;28;20048;-80
2022/04/20 05:24:04;;;;;;;17.98;8.07;;;;;;;-141.50;100.00;63355.56;5088604;28;20131;-83
2022/04/20 05:26:31;;;;;;;15.50;7.82;;;;;;;-141.50;100.00;63355.56;5089229;28;20076;-80
2022/04/20 05:28:57;;;;;;;16.15;9.57;;;;;;;-141.50;100.00;63355.56;5090326;28;20481;-84
2022/04/20 05:31:26;;;;;;;17.95;9.70;;;;;;;-141.50;100.00;63355.56;5090655;28;20177;-81
2022/04/20 05:33:53;;;;;;;18.02;10.10;;;;;;;-141.50;100.00;63355.56;5088881;28;20104;-82
2022/04/20 05:36:19;;;;;;;21.23;12.00;;;;;;;-141.50;100.00;63355.56;5088452;28;20044;-83
2022/04/20 05:41:40;;;;;;;19.53;11.37;;;;;;;-141.50;100.00;63355.56;5087387;28;20048;-81
2022/04/20 05:44:07;;;;;;;;;;;;;;;-141.50;100.00;63355.56;5097098;28;20101;-82
2022/04/20 05:46:34;;;;;;;20.25;11.55;;;;;;;-141.50;100.00;63355.56;5096522;28;19920;-81
2022/04/20 05:49:01;;;;;;;18.70;11.40;;;;;;;-141.50;100.00;63355.56;5094360;28;20052;-82
2022/04/20 05:51:28;;;;;;;18.88;11.13;;;;;;;-141.50;100.00;63355.56;5090809;28;20293;-82
2022/04/20 05:53:54;;;;;;;18.73;10.63;;;;;;;-141.50;100.00;63355.56;5092895;28;20052;-81
2022/04/20 05:56:21;;;;;;;21.77;11.52;;;;;;;-141.50;100.00;63355.56;5094765;28;20085;-82
2022/04/20 05:58:50;;;;;;;19.40;11.65;;;;;;;-141.50;100.00;63355.56;5092076;28;20068;-84
2022/04/20 06:01:17;;;;;;;19.63;10.80;;;;;;;-141.50;100.00;63355.56;5091450;28;20048;-82
2022/04/20 06:03:45;;;;;;;21.60;11.35;;;;;;;-141.50;100.00;63355.56;5091578;28;20044;-81
2022/04/20 06:06:12;;;;;;;19.75;10.95;;;;;;;-141.50;100.00;63355.56;5090401;28;20055;-81
2022/04/20 06:08:39;;;;;;;22.20;11.45;;;;;;;-141.50;100.00;63355.56;5091144;28;20082;-81
2022/04/20 06:11:05;;;;;;;22.80;10.75;;;;;;;-141.50;100.00;63355.56;5092813;28;20108;-80
2022/04/20 06:13:32;;;;;;;22.05;10.60;;;;;;;-141.50;100.00;63355.56;5093308;28;20044;-82
2022/04/20 06:15:59;;;;;;;27.52;11.82;;;;;;;-141.50;100.00;63355.56;5094452;28;20056;-80
2022/04/20 06:18:26;;;;;;;21.90;10.48;;;;;;;-141.50;100.00;63355.56;5093771;28;20047;-80
2022/04/20 06:20:53;;;;;;;24.10;10.13;;;;;;;-141.50;100.00;63355.56;5092965;28;20093;-80
2022/04/20 06:23:22;;;;;;;31.23;9.60;;;;;;;-141.50;100.00;63355.56;5093784;28;20044;-81
2022/04/20 06:25:53;;;;;;;18.95;10.00;;;;;;;-141.50;100.00;63355.56;5095147;28;20073;-80
2022/04/20 06:28:19;;;;;;;22.85;9.85;;;;;;;-141.50;100.00;63355.56;5099720;28;20054;-81
2022/04/20 06:30:46;;;;;;;19.27;9.55;;;;;;;-141.50;100.00;63355.56;5094936;28;20040;-81
2022/04/20 06:33:12;;;;;;;30.02;9.50;;;;;;;-141.50;100.00;63355.56;5092059;28;20129;-80
2022/04/20 06:35:39;;;;;;;18.08;8.85;;;;;;;-141.50;100.00;63355.56;5092670;28;20427;-80
2022/04/20 06:38:05;;;;;;;18.58;9.40;;;;;;;-141.50;100.00;63355.56;5092600;28;20370;-80
2022/04/20 06:40:32;;;;;;;19.85;9.20;;;;;;;-141.50;100.00;63355.56;5092176;28;20044;-82
2022/04/20 06:42:58;;;;;;;20.63;9.55;;;;;;;-141.50;100.00;63355.56;5092825;28;20460;-79
2022/04/20 06:45:25;;;;;;;15.57;8.93;;;;;;;-141.50;100.00;63355.56;5092855;28;20154;-82
2022/04/20 06:47:51;;;;;;;20.90;9.00;;;;;;;-141.50;100.00;63355.56;5093423;28;20075;-80
2022/04/20 06:50:18;;;;;;;16.85;8.25;;;;;;;-141.50;100.00;63355.56;5091573;28;20051;-85
2022/04/20 06:58:32;;;;;;;20.10;8.45;;;;;;;-141.50;100.00;63355.56;5091926;28;20101;-82
2022/04/20 07:00:59;;;;;;;15.20;8.02;;;;;;;-141.50;100.00;63355.56;5091412;28;20485;-81
2022/04/20 07:03:26;;;;;;;20.17;8.10;;;;;;;-141.50;100.00;63355.56;5091702;28;20076;-81
2022/04/20 07:05:53;;;;;;;14.32;7.57;;;;;;;-141.50;100.00;63355.56;5092598;28;20086;-83
2022/04/20 07:08:19;;;;;;;15.52;8.15;;;;;;;-141.50;100.00;63355.56;5089567;28;20098;-81
2022/04/20 07:10:47;;;;;;;13.10;7.45;;;;;;;-141.50;100.00;63355.56;5089509;28;20079;-81
2022/04/20 07:13:16;;;;;;;14.52;6.80;;;;;;;-141.50;100.00;63355.56;5090415;28;20048;-82
2022/04/20 07:15:43;;;;;;;22.27;7.15;;;;;;;-141.50;100.00;63355.56;5090664;28;20051;-82
2022/04/20 07:18:09;;;;;;;12.18;6.45;;;;;;;-141.50;100.00;63355.56;5090794;28;20454;-80
2022/04/20 07:20:36;;;;;;;13.80;6.40;;;;;;;-141.50;100.00;63355.56;5092224;28;20077;-83
2022/04/20 07:23:03;;;;;;;14.07;6.50;;;;;;;-141.50;100.00;63355.56;5090109;28;20052;-81
2022/04/20 07:25:30;;;;;;;16.85;6.90;;;;;;;-141.50;100.00;63355.56;5090155;28;20269;-82
2022/04/20 07:27:57;;;;;;;13.50;6.40;;;;;;;-141.50;100.00;63355.56;5091184;28;20059;-83
2022/04/20 07:30:26;;;;;;;14.88;6.70;;;;;;;-141.50;100.00;63355.56;5090337;28;20043;-80
2022/04/20 07:32:54;;;;;;;13.38;6.95;;;;;;;-141.50;100.00;63355.56;5078378;28;20039;-85
2022/04/20 07:35:21;;;;;;;14.48;7.40;;;;;;;-141.50;100.00;63355.56;5098925;28;20047;-81
2022/04/20 07:37:47;;;;;;;12.57;6.82;;;;;;;-141.50;100.00;63355.56;5102413;28;20161;-83
2022/04/20 07:40:14;;;;;;;17.55;6.78;;;;;;;-141.50;100.00;63355.56;5099811;28;20059;-82
2022/04/20 07:42:42;;;;;;;16.85;5.95;;;;;;;-141.50;100.00;63355.56;5100606;28;20075;-82
2022/04/20 07:45:09;;;;;;;13.18;5.30;;;;;;;-141.50;100.00;63355.56;5098331;28;20468;-81
2022/04/20 07:47:36;;;;;;;15.07;6.13;;;;;;;-141.50;100.00;63355.56;5092063;28;20123;-85
2022/04/20 07:50:18;;;;;;;12.95;5.13;;;;;;;-141.50;100.00;63355.56;5091350;28;20114;-80
2022/04/20 07:52:56;;;;;;;21.70;5.28;;;;;;;-141.50;100.00;63355.56;5090563;28;20063;-81
2022/04/20 07:55:31;;;;;;;28.45;5.85;;;;;;;-141.50;100.00;63355.56;5090435;28;20051;-81
2022/04/20 07:57:59;;;;;;;17.73;5.80;;;;;;;-141.50;100.00;63355.56;5090677;28;20568;-80
2022/04/20 08:00:27;;;;;;;20.27;5.45;;;;;;;-141.50;100.00;63355.56;5091306;28;20086;-84
2022/04/20 08:03:26;;;;;;;32.65;5.47;;;;;;;-141.50;100.00;63355.56;5093961;28;20559;-83
2022/04/20 08:05:55;;;;;;;15.40;5.07;;;;;;;-141.50;100.00;63355.56;5085264;28;20078;-85
2022/04/20 08:08:23;;;;;;;20.75;5.40;;;;;;;-141.50;100.00;63355.56;5094698;28;20515;-81
2022/04/20 08:10:50;;;;;;;10.35;4.63;;;;;;;-141.50;100.00;63355.56;5095348;28;20432;-84
2022/04/20 08:16:02;;;;;;;9.45;4.35;;;;;;;-141.50;100.00;63355.56;5101115;28;20071;-82
2022/04/20 08:18:29;;;;;;;11.75;5.20;;;;;;;-141.50;100.00;63355.56;5099724;28;20052;-85
2022/04/20 08:20:55;;;;;;;11.63;4.90;;;;;;;-141.50;100.00;63355.56;5099302;28;20052;-82
2022/04/20 08:23:22;;;;;;;15.02;4.30;;;;;;;-141.50;100.00;63355.56;5101227;28;20116;-82
2022/04/20 08:25:48;;;;;;;13.38;4.70;;;;;;;-141.50;100.00;63355.56;5109497;28;20031;-82
2022/04/20 08:28:15;;;;;;;11.00;4.75;;;;;;;-141.50;100.00;63355.56;5105621;28;20056;-84
2022/04/20 08:30:41;;;;;;;11.52;4.60;;;;;;;-141.50;100.00;63355.56;5098726;28;20105;-82
2022/04/20 08:33:08;;;;;;;14.02;4.60;;;;;;;-141.50;100.00;63355.56;5089868;28;20109;-81
2022/04/20 08:35:36;;;;;;;9.50;4.75;;;;;;;-141.50;100.00;63355.56;5090799;28;20053;-85
2022/04/20 08:38:04;;;;;;;9.48;4.72;;;;;;;-141.50;100.00;63355.56;5090962;28;20047;-80
2022/04/20 08:40:32;;;;;;;8.30;5.15;;;;;;;-141.50;100.00;63355.56;5090397;28;20060;-81
2022/04/20 08:43:05;;;;;;;12.90;5.30;;;;;;;-141.50;100.00;63355.56;5090087;28;20473;-81
2022/04/20 08:45:37;;;;;;;10.65;4.93;;;;;;;-141.50;100.00;63355.56;5090508;28;20409;-84
2022/04/20 08:48:05;;;;;;;11.88;4.32;;;;;;;-141.50;100.00;63355.56;5091398;28;20048;-84
2022/04/20 08:50:31;;;;;;;7.53;4.40;;;;;;;-141.50;100.00;63355.56;5089831;28;20052;-80
2022/04/20 08:53:00;;;;;;;7.30;4.63;;;;;;;-141.50;100.00;63355.56;5089995;28;20052;-79
2022/04/20 08:55:28;;;;;;;7.95;4.65;;;;;;;-141.50;100.00;63355.56;5090363;28;20147;-81
2022/04/20 08:57:54;;;;;;;7.68;4.32;;;;;;;-141.50;100.00;63355.56;5089385;28;20082;-82
2022/04/20 09:00:24;;;;;;;12.00;4.55;;;;;;;-141.50;100.00;63355.56;5090477;28;20415;-81
2022/04/20 09:02:55;;;;;;;13.68;5.80;;;;;;;-141.50;100.00;63355.56;5089599;28;20076;-81
2022/04/20 09:05:23;;;;;;;11.15;5.03;;;;;;;-141.50;100.00;63355.56;5089046;28;20373;-83
2022/04/20 09:07:51;;;;;;;8.88;4.45;;;;;;;-141.50;100.00;63355.56;5090194;28;20055;-79
2022/04/20 09:10:19;;;;;;;11.00;5.03;;;;;;;-141.50;100.00;63355.56;5089715;28;20516;-83
2022/04/20 09:13:00;;;;;;;13.48;4.70;;;;;;;-141.50;100.00;63355.56;5089078;28;20052;-80
2022/04/20 09:15:31;;;;;;;10.77;4.97;;;;;;;-141.50;100.00;63355.56;5089916;28;20079;-81
2022/04/20 09:18:01;;;;;;;7.47;4.45;;;;;;;-141.50;100.00;63355.56;5089245;28;20072;-81
2022/04/20 09:20:28;;;;;;;9.90;5.30;;;;;;;-141.50;100.00;63355.56;5088471;28;20060;-79
2022/04/20 09:23:05;;;;;;;7.13;3.70;;;;;;;-141.50;100.00;63355.56;5087657;28;20052;-82
2022/04/20 09:25:37;;;;;;;7.63;4.00;;;;;;;-141.50;100.00;63355.56;5093942;28;20109;-81
2022/04/20 09:28:04;;;;;;;6.68;4.30;;;;;;;-141.50;100.00;63355.56;5104083;28;20052;-85
2022/04/20 09:30:34;;;;;;;10.88;4.72;;;;;;;-141.50;100.00;63355.56;5096229;28;20052;-81
2022/04/20 09:33:09;;;;;;;8.32;4.40;;;;;;;-141.50;100.00;63355.56;5089970;28;20463;-80
2022/04/20 09:35:42;;;;;;;8.00;4.27;;;;;;;-141.50;100.00;63355.56;5089846;28;20146;-81
2022/04/20 09:38:08;;;;;;;10.55;4.50;;;;;;;-141.50;100.00;63355.56;5090795;28;20125;-79
2022/04/20 09:40:40;;;;;;;12.95;4.47;;;;;;;-141.50;100.00;63355.56;5088783;28;20085;-83
2022/04/20 09:43:19;;;;;;;8.80;4.53;;;;;;;-141.50;100.00;63355.56;5088943;28;20063;-81
2022/04/20 09:46:02;;;;;;;7.32;4.40;;;;;;;-141.50;100.00;63355.56;5093406;28;20092;-81
2022/04/20 09:51:20;;;;;;;7.60;4.43;;;;;;;-141.50;100.00;63355.56;5093679;28;20181;-82
2022/04/20 09:53:53;;;;;;;11.48;4.43;;;;;;;-141.50;100.00;63355.56;5093220;28;20361;-83
2022/04/20 09:56:25;;;;;;;9.90;4.15;;;;;;;-141.50;100.00;63355.56;5093187;28;20086;-82
2022/04/20 09:59:04;;;;;;;9.50;4.28;;;;;;;-141.50;100.00;63355.56;5093574;28;20576;-83
2022/04/20 10:01:34;;;;;;;9.73;4.10;;;;;;;-141.50;100.00;63355.56;5094356;28;20496;-81
2022/04/20 10:04:04;;;;;;;6.80;3.92;;;;;;;-141.50;100.00;63355.56;5094088;28;20066;-82
2022/04/20 10:06:31;;;;;;;12.27;3.90;;;;;;;-141.50;100.00;63355.56;5094119;28;20101;-82
2022/04/20 10:08:59;;;;;;;9.73;4.47;;;;;;;-141.50;100.00;63355.56;5093991;28;20052;-83
2022/04/20 10:11:27;;;;;;;11.57;4.60;;;;;;;-141.50;100.00;63355.56;5093516;28;20083;-83
2022/04/20 10:16:48;;;;;;;10.45;4.20;;;;;;;-141.50;100.00;63355.56;5092593;28;20122;-83
2022/04/20 10:19:24;;;;;;;9.07;4.57;;;;;;;-141.50;100.00;63355.56;5093388;28;20044;-81
2022/04/20 10:21:53;;;;;;;8.48;4.13;;;;;;;-141.50;100.00;63355.56;5093164;28;20151;-82
2022/04/20 10:24:29;;;;;;;10.20;4.28;;;;;;;-141.50;100.00;63355.56;5094661;28;20420;-80
2022/04/20 10:27:09;;;;;;;9.40;4.32;;;;;;;-141.50;100.00;63355.56;5095034;28;20398;-83
2022/04/20 10:29:51;;;;;;;10.15;4.47;;;;;;;-141.50;100.00;63355.56;5094008;28;20459;-83
2022/04/20 10:32:25;;;;;;;9.70;4.90;;;;;;;-141.50;100.00;63355.56;5094785;28;20048;-82
2022/04/20 10:34:53;;;;;;;17.63;5.70;;;;;;;-141.50;100.00;63355.56;5094732;28;20420;-84
2022/04/20 10:37:25;;;;;;;12.30;5.00;;;;;;;-141.50;100.00;63355.56;5093949;28;20055;-82
2022/04/20 10:39:55;;;;;;;12.05;5.22;;;;;;;-141.50;100.00;63355.56;5095825;28;20120;-82
2022/04/20 10:42:22;;;;;;;8.85;4.78;;;;;;;-141.50;100.00;63355.56;5095001;28;20109;-80
2022/04/20 10:44:55;;;;;;;8.93;4.93;;;;;;;-141.50;100.00;63355.56;5094305;28;20052;-85
2022/04/20 10:47:35;;;;;;;7.65;4.50;;;;;;;-141.50;100.00;63355.56;5092591;28;20293;-81
2022/04/20 10:50:16;;;;;;;13.95;5.45;;;;;;;-141.50;100.00;63355.56;5092178;28;20062;-81
2022/04/20 10:52:50;;;;;;;8.68;4.70;;;;;;;-141.50;100.00;63355.56;5090845;28;20469;-83
2022/04/20 10:55:24;;;;;;;12.45;4.93;;;;;;;-141.50;100.00;63355.56;5091907;28;20080;-85
2022/04/20 10:57:55;;;;;;;10.85;4.72;;;;;;;-141.50;100.00;63355.56;5090796;28;20531;-80
2022/04/20 11:00:22;;;;;;;9.68;4.93;;;;;;;-141.50;100.00;63355.56;5091862;28;20150;-83
2022/04/20 11:03:03;;;;;;;10.55;4.95;;;;;;;-141.50;100.00;63355.56;5092071;28;20047;-83
2022/04/20 11:05:30;;;;;;;9.10;5.00;;;;;;;-141.50;100.00;63355.56;5090622;28;20426;-82
2022/04/20 11:08:07;;;;;;;12.15;4.90;;;;;;;-141.50;100.00;63355.56;5091589;28;20056;-80
2022/04/20 11:10:34;;;;;;;9.55;5.03;;;;;;;-141.50;100.00;63355.56;5091919;28;20055;-83
2022/04/20 11:19:12;;;;;;;10.52;4.97;;;;;;;-141.50;100.00;63355.56;5091558;28;20082;-81
2022/04/20 11:21:53;;;;;;;13.00;5.22;;;;;;;-141.50;100.00;63355.56;5091636;28;20121;-84
2022/04/20 11:24:29;;;;;;;15.55;5.32;;;;;;;-141.50;100.00;63355.56;5091508;28;20079;-82
2022/04/20 11:26:58;;;;;;;11.18;5.90;;;;;;;-141.50;100.00;63355.56;5085853;28;20364;-85
2022/04/20 11:29:26;;;;;;;9.77;5.30;;;;;;;-141.50;100.00;63355.56;5092578;28;20098;-80
2022/04/20 11:31:58;;;;;;;9.60;5.45;;;;;;;-141.50;100.00;63355.56;5092579;28;20040;-81
2022/04/20 11:34:26;;;;;;;15.75;6.47;;;;;;;-141.50;100.00;63355.56;5091813;28;20048;-83